sensor_id;sensor_type;location;lat;lon;timestamp;pressure;altitude;pressure_sealevel;temperature;humidity
37064;BME280;23211;53.912;9.138;2022-11-14T00:01:45;102159.06;;;14.41;58.57
37064;BME280;23211;53.912;9.138;2022-11-14T00:04:49;102160.94;;;14.41;58.88
37064;BME280;23211;53.912;9.138;2022-11-14T00:07:54;102141.47;;;14.39;59.01
37064;BME280;23211;53.912;9.138;2022-11-14T00:10:58;102142.53;;;14.38;58.67
37064;BME280;23211;53.912;9.138;2022-11-14T00:14:02;102148.66;;;14.33;58.71
37064;BME280;23211;53.912;9.138;2022-11-14T00:17:07;102153.50;;;14.31;58.64
37064;BME280;23211;53.912;9.138;2022-11-14T00:20:11;102146.94;;;14.27;59.11
37064;BME280;23211;53.912;9.138;2022-11-14T00:23:16;102132.91;;;14.25;58.72
37064;BME280;23211;53.912;9.138;2022-11-14T00:26:20;102119.66;;;14.24;59.14
37064;BME280;23211;53.912;9.138;2022-11-14T00:29:25;102123.41;;;14.23;58.82
37064;BME280;23211;53.912;9.138;2022-11-14T00:32:30;102132.56;;;14.22;58.92
37064;BME280;23211;53.912;9.138;2022-11-14T00:35:34;102119.56;;;14.18;59.03
37064;BME280;23211;53.912;9.138;2022-11-14T00:38:38;102123.09;;;14.19;58.94
37064;BME280;23211;53.912;9.138;2022-11-14T00:41:43;102118.28;;;14.21;58.90
37064;BME280;23211;53.912;9.138;2022-11-14T00:44:47;102115.56;;;14.21;59.03
37064;BME280;23211;53.912;9.138;2022-11-14T00:47:51;102116.88;;;14.18;59.11
37064;BME280;23211;53.912;9.138;2022-11-14T00:50:56;102099.88;;;14.18;58.96
37064;BME280;23211;53.912;9.138;2022-11-14T00:54:00;102113.38;;;14.18;58.75
37064;BME280;23211;53.912;9.138;2022-11-14T00:57:05;102113.13;;;14.19;59.15
37064;BME280;23211;53.912;9.138;2022-11-14T01:00:12;102106.66;;;14.20;58.85
37064;BME280;23211;53.912;9.138;2022-11-14T01:03:16;102100.72;;;14.18;58.78
37064;BME280;23211;53.912;9.138;2022-11-14T01:06:21;102098.81;;;14.19;58.90
37064;BME280;23211;53.912;9.138;2022-11-14T01:09:25;102098.00;;;14.18;58.92
37064;BME280;23211;53.912;9.138;2022-11-14T01:12:29;102085.84;;;14.16;58.92
37064;BME280;23211;53.912;9.138;2022-11-14T01:15:40;102085.03;;;14.15;58.53
37064;BME280;23211;53.912;9.138;2022-11-14T01:18:45;102078.25;;;14.13;58.65
37064;BME280;23211;53.912;9.138;2022-11-14T01:21:50;102072.28;;;14.11;58.45
37064;BME280;23211;53.912;9.138;2022-11-14T01:24:54;102070.91;;;14.08;58.59
37064;BME280;23211;53.912;9.138;2022-11-14T01:28:01;102056.59;;;14.08;58.55
37064;BME280;23211;53.912;9.138;2022-11-14T01:34:21;102054.31;;;14.00;58.57
37064;BME280;23211;53.912;9.138;2022-11-14T01:37:25;102052.09;;;13.97;58.83
37064;BME280;23211;53.912;9.138;2022-11-14T01:40:31;102051.53;;;13.95;58.89
37064;BME280;23211;53.912;9.138;2022-11-14T01:43:38;102046.63;;;13.92;58.79
37064;BME280;23211;53.912;9.138;2022-11-14T01:46:45;102030.94;;;13.88;58.82
37064;BME280;23211;53.912;9.138;2022-11-14T01:49:54;102023.13;;;13.87;58.54
37064;BME280;23211;53.912;9.138;2022-11-14T01:53:01;102042.78;;;13.87;58.85
37064;BME280;23211;53.912;9.138;2022-11-14T01:56:06;102029.91;;;13.90;58.90
37064;BME280;23211;53.912;9.138;2022-11-14T01:59:17;102017.25;;;13.90;58.41
37064;BME280;23211;53.912;9.138;2022-11-14T02:02:24;102019.94;;;13.90;58.64
37064;BME280;23211;53.912;9.138;2022-11-14T02:05:29;102003.19;;;13.88;58.47
37064;BME280;23211;53.912;9.138;2022-11-14T02:08:35;102009.88;;;13.85;58.46
37064;BME280;23211;53.912;9.138;2022-11-14T02:11:42;101999.59;;;13.82;58.61
37064;BME280;23211;53.912;9.138;2022-11-14T02:14:50;101999.28;;;13.79;58.51
37064;BME280;23211;53.912;9.138;2022-11-14T02:17:55;101994.38;;;13.76;58.62
37064;BME280;23211;53.912;9.138;2022-11-14T02:21:00;101992.41;;;13.71;58.72
37064;BME280;23211;53.912;9.138;2022-11-14T02:24:09;101983.19;;;13.67;58.67
37064;BME280;23211;53.912;9.138;2022-11-14T02:27:14;101980.25;;;13.69;58.67
37064;BME280;23211;53.912;9.138;2022-11-14T02:30:21;101968.19;;;13.71;58.77
37064;BME280;23211;53.912;9.138;2022-11-14T02:33:26;101963.59;;;13.72;58.30
37064;BME280;23211;53.912;9.138;2022-11-14T02:36:30;101960.09;;;13.71;58.52
37064;BME280;23211;53.912;9.138;2022-11-14T02:39:35;101959.75;;;13.68;58.40
37064;BME280;23211;53.912;9.138;2022-11-14T02:42:39;101949.16;;;13.61;58.35
37064;BME280;23211;53.912;9.138;2022-11-14T02:45:43;101950.69;;;13.57;58.30
37064;BME280;23211;53.912;9.138;2022-11-14T02:48:47;101949.31;;;13.54;58.00
37064;BME280;23211;53.912;9.138;2022-11-14T02:51:52;101942.78;;;13.50;57.98
37064;BME280;23211;53.912;9.138;2022-11-14T02:54:56;101939.69;;;13.42;58.08
37064;BME280;23211;53.912;9.138;2022-11-14T02:58:01;101935.34;;;13.41;58.43
37064;BME280;23211;53.912;9.138;2022-11-14T03:01:05;101931.84;;;13.40;58.13
37064;BME280;23211;53.912;9.138;2022-11-14T03:04:09;101946.38;;;13.39;58.34
37064;BME280;23211;53.912;9.138;2022-11-14T03:07:14;101928.56;;;13.38;58.14
37064;BME280;23211;53.912;9.138;2022-11-14T03:10:19;101927.75;;;13.38;58.06
37064;BME280;23211;53.912;9.138;2022-11-14T03:13:27;101928.50;;;13.33;57.91
37064;BME280;23211;53.912;9.138;2022-11-14T03:16:31;101916.81;;;13.28;58.29
37064;BME280;23211;53.912;9.138;2022-11-14T03:19:36;101920.56;;;13.27;58.47
37064;BME280;23211;53.912;9.138;2022-11-14T03:22:40;101927.59;;;13.28;58.27
37064;BME280;23211;53.912;9.138;2022-11-14T03:25:44;101931.66;;;13.30;58.16
37064;BME280;23211;53.912;9.138;2022-11-14T03:28:49;101919.28;;;13.29;58.27
37064;BME280;23211;53.912;9.138;2022-11-14T03:31:53;101923.50;;;13.25;58.47
37064;BME280;23211;53.912;9.138;2022-11-14T03:34:57;101916.72;;;13.22;58.29
37064;BME280;23211;53.912;9.138;2022-11-14T03:38:02;101904.81;;;13.18;58.44
37064;BME280;23211;53.912;9.138;2022-11-14T03:41:06;101906.94;;;13.16;58.31
37064;BME280;23211;53.912;9.138;2022-11-14T03:44:10;101903.06;;;13.12;58.43
37064;BME280;23211;53.912;9.138;2022-11-14T03:47:15;101907.06;;;13.10;58.56
37064;BME280;23211;53.912;9.138;2022-11-14T03:50:19;101894.41;;;13.10;58.47
37064;BME280;23211;53.912;9.138;2022-11-14T03:53:24;101887.16;;;13.11;58.57
37064;BME280;23211;53.912;9.138;2022-11-14T03:56:28;101876.41;;;13.11;58.51
37064;BME280;23211;53.912;9.138;2022-11-14T03:59:32;101889.63;;;13.12;58.51
37064;BME280;23211;53.912;9.138;2022-11-14T04:02:37;101886.69;;;13.14;58.50
37064;BME280;23211;53.912;9.138;2022-11-14T04:05:44;101872.66;;;13.12;58.36
37064;BME280;23211;53.912;9.138;2022-11-14T04:08:49;101885.03;;;13.13;58.36
37064;BME280;23211;53.912;9.138;2022-11-14T04:11:54;101874.53;;;13.11;58.49
37064;BME280;23211;53.912;9.138;2022-11-14T04:14:59;101876.06;;;13.07;58.59
37064;BME280;23211;53.912;9.138;2022-11-14T04:18:03;101868.25;;;13.06;58.60
37064;BME280;23211;53.912;9.138;2022-11-14T04:21:08;101866.59;;;13.05;58.56
37064;BME280;23211;53.912;9.138;2022-11-14T04:24:12;101859.34;;;13.05;58.85
37064;BME280;23211;53.912;9.138;2022-11-14T04:27:16;101860.16;;;13.06;58.56
37064;BME280;23211;53.912;9.138;2022-11-14T04:30:21;101862.03;;;13.05;58.45
37064;BME280;23211;53.912;9.138;2022-11-14T04:33:25;101855.59;;;13.06;58.56
37064;BME280;23211;53.912;9.138;2022-11-14T04:36:30;101855.59;;;13.06;58.51
37064;BME280;23211;53.912;9.138;2022-11-14T04:39:34;101852.91;;;13.06;58.62
37064;BME280;23211;53.912;9.138;2022-11-14T04:42:39;101851.53;;;13.04;58.66
37064;BME280;23211;53.912;9.138;2022-11-14T04:45:43;101844.50;;;13.03;58.75
37064;BME280;23211;53.912;9.138;2022-11-14T04:48:47;101845.09;;;13.05;58.67
37064;BME280;23211;53.912;9.138;2022-11-14T04:51:51;101844.84;;;13.06;58.65
37064;BME280;23211;53.912;9.138;2022-11-14T04:54:55;101839.22;;;13.08;58.51
37064;BME280;23211;53.912;9.138;2022-11-14T04:58:00;101836.53;;;13.08;58.61
37064;BME280;23211;53.912;9.138;2022-11-14T05:01:08;101826.81;;;13.07;58.63
37064;BME280;23211;53.912;9.138;2022-11-14T05:04:13;101835.47;;;13.09;58.45
37064;BME280;23211;53.912;9.138;2022-11-14T05:07:18;101830.34;;;13.07;58.72
37064;BME280;23211;53.912;9.138;2022-11-14T05:10:22;101824.38;;;13.05;58.61
37064;BME280;23211;53.912;9.138;2022-11-14T05:13:27;101819.81;;;13.06;58.84
37064;BME280;23211;53.912;9.138;2022-11-14T05:16:31;101817.69;;;13.08;58.83
37064;BME280;23211;53.912;9.138;2022-11-14T05:19:36;101806.69;;;13.09;58.70
37064;BME280;23211;53.912;9.138;2022-11-14T05:22:40;101803.75;;;13.11;58.67
37064;BME280;23211;53.912;9.138;2022-11-14T05:25:44;101806.69;;;13.09;58.60
37064;BME280;23211;53.912;9.138;2022-11-14T05:28:48;101804.00;;;13.09;58.68
37064;BME280;23211;53.912;9.138;2022-11-14T05:31:53;101801.63;;;13.13;58.74
37064;BME280;23211;53.912;9.138;2022-11-14T05:34:57;101800.13;;;13.17;58.67
37064;BME280;23211;53.912;9.138;2022-11-14T05:38:01;101800.69;;;13.19;58.63
37064;BME280;23211;53.912;9.138;2022-11-14T05:41:10;101793.19;;;13.21;58.47
37064;BME280;23211;53.912;9.138;2022-11-14T05:44:15;101789.44;;;13.22;58.54
37064;BME280;23211;53.912;9.138;2022-11-14T05:47:19;101787.81;;;13.21;58.57
37064;BME280;23211;53.912;9.138;2022-11-14T05:50:24;101788.88;;;13.20;58.37
37064;BME280;23211;53.912;9.138;2022-11-14T05:53:29;101790.97;;;13.18;58.43
37064;BME280;23211;53.912;9.138;2022-11-14T05:56:34;101799.63;;;13.20;58.58
37064;BME280;23211;53.912;9.138;2022-11-14T05:59:38;101790.75;;;13.19;58.55
37064;BME280;23211;53.912;9.138;2022-11-14T06:02:42;101796.94;;;13.20;58.62
37064;BME280;23211;53.912;9.138;2022-11-14T06:05:49;101796.38;;;13.18;58.41
37064;BME280;23211;53.912;9.138;2022-11-14T06:08:53;101794.94;;;13.15;58.49
37064;BME280;23211;53.912;9.138;2022-11-14T06:11:57;101796.63;;;13.16;58.47
37064;BME280;23211;53.912;9.138;2022-11-14T06:15:01;101796.25;;;13.13;58.47
37064;BME280;23211;53.912;9.138;2022-11-14T06:18:06;101795.69;;;13.11;58.47
37064;BME280;23211;53.912;9.138;2022-11-14T06:21:16;101796.50;;;13.11;58.29
37064;BME280;23211;53.912;9.138;2022-11-14T06:24:21;101790.88;;;13.13;58.56
37064;BME280;23211;53.912;9.138;2022-11-14T06:27:25;101797.31;;;13.12;58.82
37064;BME280;23211;53.912;9.138;2022-11-14T06:30:29;101791.38;;;13.10;58.66
37064;BME280;23211;53.912;9.138;2022-11-14T06:33:35;101791.38;;;13.10;58.44
37064;BME280;23211;53.912;9.138;2022-11-14T06:36:40;101803.66;;;13.06;58.49
37064;BME280;23211;53.912;9.138;2022-11-14T06:39:44;101806.38;;;13.06;58.40
37064;BME280;23211;53.912;9.138;2022-11-14T06:42:49;101799.09;;;13.06;58.63
37064;BME280;23211;53.912;9.138;2022-11-14T06:45:53;101802.13;;;13.10;58.59
37064;BME280;23211;53.912;9.138;2022-11-14T06:48:59;101788.44;;;13.11;58.29
37064;BME280;23211;53.912;9.138;2022-11-14T06:52:03;101795.69;;;13.11;58.35
37064;BME280;23211;53.912;9.138;2022-11-14T06:55:08;101803.19;;;13.09;58.18
37064;BME280;23211;53.912;9.138;2022-11-14T06:58:12;101806.38;;;13.06;58.31
37064;BME280;23211;53.912;9.138;2022-11-14T07:01:19;101806.28;;;13.01;58.33
37064;BME280;23211;53.912;9.138;2022-11-14T07:04:24;101805.13;;;12.97;58.51
37064;BME280;23211;53.912;9.138;2022-11-14T07:07:28;101808.63;;;12.97;58.49
37064;BME280;23211;53.912;9.138;2022-11-14T07:10:33;101800.09;;;13.00;58.39
37064;BME280;23211;53.912;9.138;2022-11-14T07:13:38;101794.69;;;13.00;58.24
37064;BME280;23211;53.912;9.138;2022-11-14T07:16:42;101783.84;;;12.95;58.45
37064;BME280;23211;53.912;9.138;2022-11-14T07:19:46;101787.59;;;12.94;58.44
37064;BME280;23211;53.912;9.138;2022-11-14T07:22:50;101786.78;;;12.94;58.30
37064;BME280;23211;53.912;9.138;2022-11-14T07:25:54;101793.47;;;12.91;58.43
37064;BME280;23211;53.912;9.138;2022-11-14T07:28:59;101779.44;;;12.89;58.56
37064;BME280;23211;53.912;9.138;2022-11-14T07:32:04;101775.94;;;12.88;58.47
37064;BME280;23211;53.912;9.138;2022-11-14T07:35:08;101779.94;;;12.86;58.49
37064;BME280;23211;53.912;9.138;2022-11-14T07:38:12;101781.56;;;12.87;58.54
37064;BME280;23211;53.912;9.138;2022-11-14T07:41:17;101785.88;;;12.88;58.64
37064;BME280;23211;53.912;9.138;2022-11-14T07:44:22;101780.28;;;12.89;58.58
37064;BME280;23211;53.912;9.138;2022-11-14T07:47:26;101788.91;;;12.91;58.67
37064;BME280;23211;53.912;9.138;2022-11-14T07:50:30;101779.53;;;12.94;58.46
37064;BME280;23211;53.912;9.138;2022-11-14T07:53:35;101785.97;;;12.93;58.45
37064;BME280;23211;53.912;9.138;2022-11-14T07:56:39;101778.16;;;12.91;58.61
37064;BME280;23211;53.912;9.138;2022-11-14T07:59:44;101791.84;;;12.90;58.56
37064;BME280;23211;53.912;9.138;2022-11-14T08:02:48;101773.25;;;12.88;58.34
37064;BME280;23211;53.912;9.138;2022-11-14T08:05:59;101782.88;;;12.84;58.46
37064;BME280;23211;53.912;9.138;2022-11-14T08:09:04;101781.81;;;12.85;58.62
37064;BME280;23211;53.912;9.138;2022-11-14T08:12:10;101785.56;;;12.84;58.44
37064;BME280;23211;53.912;9.138;2022-11-14T08:15:14;101786.63;;;12.83;58.71
37064;BME280;23211;53.912;9.138;2022-11-14T08:18:18;101791.19;;;12.83;58.59
37064;BME280;23211;53.912;9.138;2022-11-14T08:21:23;101782.31;;;12.82;58.75
37064;BME280;23211;53.912;9.138;2022-11-14T08:24:27;101782.53;;;12.81;58.45
37064;BME280;23211;53.912;9.138;2022-11-14T08:27:32;101770.97;;;12.80;58.71
37064;BME280;23211;53.912;9.138;2022-11-14T08:30:36;101776.69;;;12.84;58.73
37064;BME280;23211;53.912;9.138;2022-11-14T08:33:40;101776.19;;;12.87;58.71
37064;BME280;23211;53.912;9.138;2022-11-14T08:36:45;101772.78;;;12.91;58.61
37064;BME280;23211;53.912;9.138;2022-11-14T08:39:49;101769.59;;;12.95;58.39
37064;BME280;23211;53.912;9.138;2022-11-14T08:42:59;101769.59;;;12.95;58.38
37064;BME280;23211;53.912;9.138;2022-11-14T08:46:04;101770.16;;;12.97;58.40
37064;BME280;23211;53.912;9.138;2022-11-14T08:49:09;101764.78;;;12.97;58.25
37064;BME280;23211;53.912;9.138;2022-11-14T08:52:13;101752.97;;;12.98;58.38
37064;BME280;23211;53.912;9.138;2022-11-14T08:55:18;101745.47;;;13.00;58.67
37064;BME280;23211;53.912;9.138;2022-11-14T08:58:26;101749.28;;;13.04;58.39
37064;BME280;23211;53.912;9.138;2022-11-14T09:01:31;101753.13;;;13.08;58.53
37064;BME280;23211;53.912;9.138;2022-11-14T09:04:35;101747.50;;;13.09;58.56
37064;BME280;23211;53.912;9.138;2022-11-14T09:07:40;101743.50;;;13.12;58.24
37064;BME280;23211;53.912;9.138;2022-11-14T09:10:44;101746.69;;;13.09;58.37
37064;BME280;23211;53.912;9.138;2022-11-14T09:13:49;101743.19;;;13.08;58.47
37064;BME280;23211;53.912;9.138;2022-11-14T09:16:53;101744.47;;;13.06;58.25
37064;BME280;23211;53.912;9.138;2022-11-14T09:19:57;101740.16;;;13.05;58.51
37064;BME280;23211;53.912;9.138;2022-11-14T09:23:02;101738.03;;;13.07;58.59
37064;BME280;23211;53.912;9.138;2022-11-14T09:26:08;101731.59;;;13.08;58.72
37064;BME280;23211;53.912;9.138;2022-11-14T09:29:12;101728.91;;;13.08;58.39
37064;BME280;23211;53.912;9.138;2022-11-14T09:32:17;101723.78;;;13.06;58.60
37064;BME280;23211;53.912;9.138;2022-11-14T09:35:21;101723.53;;;13.08;58.67
37064;BME280;23211;53.912;9.138;2022-11-14T09:38:26;101721.72;;;13.13;58.71
37064;BME280;23211;53.912;9.138;2022-11-14T09:45:15;101721.59;;;13.20;58.34
37064;BME280;23211;53.912;9.138;2022-11-14T09:48:22;101721.66;;;13.25;58.48
37064;BME280;23211;53.912;9.138;2022-11-14T09:51:41;101717.66;;;13.28;58.28
37064;BME280;23211;53.912;9.138;2022-11-14T09:54:55;101715.22;;;13.26;58.07
37064;BME280;23211;53.912;9.138;2022-11-14T09:58:01;101725.97;;;13.26;58.17
37064;BME280;23211;53.912;9.138;2022-11-14T10:01:13;101724.59;;;13.23;57.90
37064;BME280;23211;53.912;9.138;2022-11-14T10:11:18;101720.84;;;13.25;57.96
37064;BME280;23211;53.912;9.138;2022-11-14T10:17:54;101714.00;;;13.17;57.95
37064;BME280;23211;53.912;9.138;2022-11-14T10:24:29;101717.53;;;13.17;58.00
37064;BME280;23211;53.912;9.138;2022-11-14T10:27:47;101700.31;;;13.18;58.09
37064;BME280;23211;53.912;9.138;2022-11-14T10:31:07;101702.75;;;13.20;58.29
37064;BME280;23211;53.912;9.138;2022-11-14T10:34:38;101696.63;;;13.25;57.96
37064;BME280;23211;53.912;9.138;2022-11-14T10:38:16;101696.81;;;13.18;58.10
37064;BME280;23211;53.912;9.138;2022-11-14T10:41:24;101701.38;;;13.17;58.10
37064;BME280;23211;53.912;9.138;2022-11-14T10:44:38;101702.66;;;13.15;58.17
37064;BME280;23211;53.912;9.138;2022-11-14T10:47:58;101692.50;;;13.17;58.13
37064;BME280;23211;53.912;9.138;2022-11-14T10:51:28;101696.22;;;13.16;58.17
37064;BME280;23211;53.912;9.138;2022-11-14T10:54:55;101700.22;;;13.13;58.33
37064;BME280;23211;53.912;9.138;2022-11-14T10:58:09;101702.75;;;13.20;58.38
37064;BME280;23211;53.912;9.138;2022-11-14T11:01:37;101691.25;;;13.25;58.34
37064;BME280;23211;53.912;9.138;2022-11-14T11:04:43;101694.81;;;13.30;58.15
37064;BME280;23211;53.912;9.138;2022-11-14T11:07:48;101689.19;;;13.32;58.13
37064;BME280;23211;53.912;9.138;2022-11-14T11:11:13;101685.13;;;13.29;58.01
37064;BME280;23211;53.912;9.138;2022-11-14T11:14:33;101683.75;;;13.27;57.94
37064;BME280;23211;53.912;9.138;2022-11-14T11:17:53;101671.84;;;13.22;57.99
37064;BME280;23211;53.912;9.138;2022-11-14T11:24:10;101671.09;;;13.27;58.16
37064;BME280;23211;53.912;9.138;2022-11-14T11:30:23;101655.03;;;13.32;57.98
37064;BME280;23211;53.912;9.138;2022-11-14T11:33:35;101654.44;;;13.30;58.00
37064;BME280;23211;53.912;9.138;2022-11-14T11:36:44;101642.63;;;13.31;58.04
37064;BME280;23211;53.912;9.138;2022-11-14T11:39:55;101640.50;;;13.33;57.91
37064;BME280;23211;53.912;9.138;2022-11-14T11:43:12;101610.31;;;13.31;58.44
37064;BME280;23211;53.912;9.138;2022-11-14T11:46:43;101620.28;;;13.31;58.10
37064;BME280;23211;53.912;9.138;2022-11-14T11:49:51;101616.53;;;13.32;58.21
37064;BME280;23211;53.912;9.138;2022-11-14T11:53:09;101605.00;;;13.36;58.02
37064;BME280;23211;53.912;9.138;2022-11-14T11:56:21;101606.13;;;13.40;58.02
37064;BME280;23211;53.912;9.138;2022-11-14T11:59:35;101608.38;;;13.48;57.91
37064;BME280;23211;53.912;9.138;2022-11-14T12:02:45;101589.59;;;13.53;57.81
37064;BME280;23211;53.912;9.138;2022-11-14T12:09:25;101575.00;;;13.49;57.76
37064;BME280;23211;53.912;9.138;2022-11-14T12:19:49;101549.41;;;13.47;57.93
37064;BME280;23211;53.912;9.138;2022-11-14T12:26:56;101538.66;;;13.47;57.79
37064;BME280;23211;53.912;9.138;2022-11-14T12:30:20;101542.09;;;13.42;58.02
37064;BME280;23211;53.912;9.138;2022-11-14T12:33:32;101551.53;;;13.45;58.19
37064;BME280;23211;53.912;9.138;2022-11-14T12:36:43;101559.13;;;13.48;57.84
37064;BME280;23211;53.912;9.138;2022-11-14T12:40:02;101571.25;;;13.50;57.94
37064;BME280;23211;53.912;9.138;2022-11-14T12:43:38;101576.38;;;13.52;57.80
37064;BME280;23211;53.912;9.138;2022-11-14T12:50:27;101580.75;;;13.58;57.72
37064;BME280;23211;53.912;9.138;2022-11-14T12:56:51;101586.19;;;13.63;57.79
37064;BME280;23211;53.912;9.138;2022-11-14T13:00:03;101582.50;;;13.69;57.90
37064;BME280;23211;53.912;9.138;2022-11-14T13:06:48;101550.53;;;13.78;57.35
37064;BME280;23211;53.912;9.138;2022-11-14T13:10:21;101538.44;;;13.80;57.71
37064;BME280;23211;53.912;9.138;2022-11-14T13:13:31;101545.44;;;13.81;57.62
37064;BME280;23211;53.912;9.138;2022-11-14T13:20:40;101530.88;;;13.77;57.80
37064;BME280;23211;53.912;9.138;2022-11-14T13:24:03;101543.00;;;13.80;57.77
37064;BME280;23211;53.912;9.138;2022-11-14T13:27:27;101533.59;;;13.82;57.89
37064;BME280;23211;53.912;9.138;2022-11-14T13:31:04;101527.41;;;13.82;57.73
37064;BME280;23211;53.912;9.138;2022-11-14T13:38:04;101525.56;;;13.87;57.42
37064;BME280;23211;53.912;9.138;2022-11-14T13:41:29;101517.53;;;13.93;57.53
37064;BME280;23211;53.912;9.138;2022-11-14T13:48:31;101529.41;;;13.97;57.53
37064;BME280;23211;53.912;9.138;2022-11-14T13:51:39;101520.31;;;14.03;57.68
37064;BME280;23211;53.912;9.138;2022-11-14T13:54:46;101507.94;;;14.07;57.18
37064;BME280;23211;53.912;9.138;2022-11-14T14:04:47;101507.44;;;14.10;56.97
37064;BME280;23211;53.912;9.138;2022-11-14T14:08:42;101496.13;;;14.13;56.90
37064;BME280;23211;53.912;9.138;2022-11-14T14:11:29;101489.66;;;14.14;57.25
37064;BME280;23211;53.912;9.138;2022-11-14T14:18:25;101494.25;;;14.13;57.06
37064;BME280;23211;53.912;9.138;2022-11-14T14:21:46;101498.88;;;14.18;56.72
37064;BME280;23211;53.912;9.138;2022-11-14T14:28:32;101489.44;;;14.20;56.94
37064;BME280;23211;53.912;9.138;2022-11-14T14:31:41;101501.34;;;14.25;56.83
37064;BME280;23211;53.912;9.138;2022-11-14T14:34:45;101493.53;;;14.28;56.47
37064;BME280;23211;53.912;9.138;2022-11-14T14:37:55;101486.53;;;14.27;56.70
37064;BME280;23211;53.912;9.138;2022-11-14T14:41:00;101484.91;;;14.26;56.54
37064;BME280;23211;53.912;9.138;2022-11-14T14:44:04;101475.75;;;14.27;56.59
37064;BME280;23211;53.912;9.138;2022-11-14T14:47:39;101464.94;;;14.22;56.50
37064;BME280;23211;53.912;9.138;2022-11-14T14:50:55;101463.31;;;14.21;56.58
37064;BME280;23211;53.912;9.138;2022-11-14T14:54:00;101459.00;;;14.20;56.49
37064;BME280;23211;53.912;9.138;2022-11-14T14:57:16;101456.00;;;14.16;56.63
37064;BME280;23211;53.912;9.138;2022-11-14T15:00:23;101452.75;;;14.14;56.74
37064;BME280;23211;53.912;9.138;2022-11-14T15:03:42;101450.84;;;14.10;56.61
37064;BME280;23211;53.912;9.138;2022-11-14T15:06:48;101459.69;;;14.05;56.76
37064;BME280;23211;53.912;9.138;2022-11-14T15:09:58;101459.66;;;14.00;56.60
37064;BME280;23211;53.912;9.138;2022-11-14T15:13:04;101449.94;;;13.94;56.55
37064;BME280;23211;53.912;9.138;2022-11-14T15:16:09;101443.44;;;13.90;56.85
37064;BME280;23211;53.912;9.138;2022-11-14T15:19:17;101446.91;;;13.85;56.82
37064;BME280;23211;53.912;9.138;2022-11-14T15:22:23;101436.09;;;13.80;56.51
37064;BME280;23211;53.912;9.138;2022-11-14T15:25:29;101436.84;;;13.76;56.57
37064;BME280;23211;53.912;9.138;2022-11-14T15:28:33;101430.88;;;13.69;56.66
37064;BME280;23211;53.912;9.138;2022-11-14T15:31:37;101427.06;;;13.65;56.89
37064;BME280;23211;53.912;9.138;2022-11-14T15:34:41;101436.44;;;13.57;56.78
37064;BME280;23211;53.912;9.138;2022-11-14T15:38:05;101429.66;;;13.49;56.86
37064;BME280;23211;53.912;9.138;2022-11-14T15:41:21;101440.09;;;13.46;56.96
37064;BME280;23211;53.912;9.138;2022-11-14T15:44:30;101437.69;;;13.44;56.94
37064;BME280;23211;53.912;9.138;2022-11-14T15:47:38;101432.28;;;13.44;57.11
37064;BME280;23211;53.912;9.138;2022-11-14T15:50:48;101446.25;;;13.41;56.97
37064;BME280;23211;53.912;9.138;2022-11-14T15:53:53;101436.06;;;13.43;56.69
37064;BME280;23211;53.912;9.138;2022-11-14T15:57:08;101440.88;;;13.41;56.83
37064;BME280;23211;53.912;9.138;2022-11-14T16:00:16;101432.00;;;13.41;56.68
37064;BME280;23211;53.912;9.138;2022-11-14T16:03:21;101429.81;;;13.38;56.79
37064;BME280;23211;53.912;9.138;2022-11-14T16:06:26;101417.63;;;13.30;56.77
37064;BME280;23211;53.912;9.138;2022-11-14T16:09:30;101429.16;;;13.26;56.75
37064;BME280;23211;53.912;9.138;2022-11-14T16:12:34;101430.47;;;13.23;56.78
37064;BME280;23211;53.912;9.138;2022-11-14T16:15:39;101428.84;;;13.22;56.70
37064;BME280;23211;53.912;9.138;2022-11-14T16:18:43;101423.16;;;13.18;57.08
37064;BME280;23211;53.912;9.138;2022-11-14T16:21:47;101419.06;;;13.16;56.90
37064;BME280;23211;53.912;9.138;2022-11-14T16:24:52;101419.59;;;13.13;57.17
37064;BME280;23211;53.912;9.138;2022-11-14T16:27:57;101411.75;;;13.11;57.18
37064;BME280;23211;53.912;9.138;2022-11-14T16:31:01;101409.31;;;13.10;57.19
37064;BME280;23211;53.912;9.138;2022-11-14T16:34:23;101413.34;;;13.07;57.24
37064;BME280;23211;53.912;9.138;2022-11-14T16:37:27;101410.66;;;13.07;57.17
37064;BME280;23211;53.912;9.138;2022-11-14T16:40:31;101413.59;;;13.06;57.39
37064;BME280;23211;53.912;9.138;2022-11-14T16:43:36;101405.25;;;13.07;57.36
37064;BME280;23211;53.912;9.138;2022-11-14T16:46:41;101398.25;;;13.06;57.43
37064;BME280;23211;53.912;9.138;2022-11-14T16:49:46;101397.97;;;13.03;57.54
37064;BME280;23211;53.912;9.138;2022-11-14T16:52:50;101403.59;;;13.01;57.57
37064;BME280;23211;53.912;9.138;2022-11-14T16:55:55;101394.72;;;13.01;57.69
37064;BME280;23211;53.912;9.138;2022-11-14T16:59:00;101396.34;;;13.02;57.54
37064;BME280;23211;53.912;9.138;2022-11-14T17:02:04;101395.28;;;13.03;57.56
37064;BME280;23211;53.912;9.138;2022-11-14T17:05:09;101393.91;;;13.00;57.60
37064;BME280;23211;53.912;9.138;2022-11-14T17:08:14;101396.03;;;12.98;57.78
37064;BME280;23211;53.912;9.138;2022-11-14T17:11:18;101383.09;;;12.95;57.84
37064;BME280;23211;53.912;9.138;2022-11-14T17:14:23;101391.16;;;12.95;57.73
37064;BME280;23211;53.912;9.138;2022-11-14T17:17:27;101382.28;;;12.95;57.78
37064;BME280;23211;53.912;9.138;2022-11-14T17:20:31;101386.03;;;12.94;57.79
37064;BME280;23211;53.912;9.138;2022-11-14T17:23:36;101378.22;;;12.92;57.96
37064;BME280;23211;53.912;9.138;2022-11-14T17:26:40;101383.59;;;12.92;57.89
37064;BME280;23211;53.912;9.138;2022-11-14T17:29:45;101372.28;;;12.90;57.91
37064;BME280;23211;53.912;9.138;2022-11-14T17:32:50;101374.66;;;12.86;58.12
37064;BME280;23211;53.912;9.138;2022-11-14T17:35:54;101368.97;;;12.83;58.04
37064;BME280;23211;53.912;9.138;2022-11-14T17:38:58;101376.22;;;12.82;58.10